sensor_id;sensor_type;location;lat;lon;timestamp;P1;durP1;ratioP1;P2;durP2;ratioP2
48215;SDS011;34005;48.844;10.098;2023-09-08T00:00:57;6.80;;;6.03;;
48215;SDS011;34005;48.844;10.098;2023-09-08T00:03:25;10.63;;;6.68;;
48215;SDS011;34005;48.844;10.098;2023-09-08T00:05:53;13.05;;;7.63;;
48215;SDS011;34005;48.844;10.098;2023-09-08T00:08:21;6.60;;;5.88;;
48215;SDS011;34005;48.844;10.098;2023-09-08T00:10:50;15.45;;;6.90;;
48215;SDS011;34005;48.844;10.098;2023-09-08T00:13:17;12.15;;;7.05;;
48215;SDS011;34005;48.844;10.098;2023-09-08T00:15:45;8.30;;;6.05;;
48215;SDS011;34005;48.844;10.098;2023-09-08T00:18:13;9.05;;;7.15;;
48215;SDS011;34005;48.844;10.098;2023-09-08T00:20:40;14.13;;;7.10;;
48215;SDS011;34005;48.844;10.098;2023-09-08T00:23:09;9.43;;;6.53;;
48215;SDS011;34005;48.844;10.098;2023-09-08T00:25:38;8.27;;;6.78;;
48215;SDS011;34005;48.844;10.098;2023-09-08T00:28:05;9.45;;;6.88;;
48215;SDS011;34005;48.844;10.098;2023-09-08T00:30:33;8.35;;;6.85;;
48215;SDS011;34005;48.844;10.098;2023-09-08T00:33:01;8.35;;;6.90;;
48215;SDS011;34005;48.844;10.098;2023-09-08T00:35:29;7.55;;;6.53;;
48215;SDS011;34005;48.844;10.098;2023-09-08T00:37:56;9.70;;;6.70;;
48215;SDS011;34005;48.844;10.098;2023-09-08T00:40:24;11.32;;;6.75;;
48215;SDS011;34005;48.844;10.098;2023-09-08T00:42:55;9.32;;;7.68;;
48215;SDS011;34005;48.844;10.098;2023-09-08T00:45:22;8.18;;;6.88;;
48215;SDS011;34005;48.844;10.098;2023-09-08T00:47:50;7.75;;;7.03;;
48215;SDS011;34005;48.844;10.098;2023-09-08T00:50:18;9.75;;;7.22;;
48215;SDS011;34005;48.844;10.098;2023-09-08T00:52:46;10.60;;;7.55;;
48215;SDS011;34005;48.844;10.098;2023-09-08T00:55:13;7.75;;;6.95;;
48215;SDS011;34005;48.844;10.098;2023-09-08T00:57:41;11.18;;;7.63;;
48215;SDS011;34005;48.844;10.098;2023-09-08T01:00:11;8.93;;;6.90;;
48215;SDS011;34005;48.844;10.098;2023-09-08T01:02:40;7.35;;;6.10;;
48215;SDS011;34005;48.844;10.098;2023-09-08T01:05:09;8.65;;;7.15;;
48215;SDS011;34005;48.844;10.098;2023-09-08T01:07:37;11.98;;;6.93;;
48215;SDS011;34005;48.844;10.098;2023-09-08T01:10:05;8.27;;;7.43;;
48215;SDS011;34005;48.844;10.098;2023-09-08T01:12:33;8.32;;;6.82;;
48215;SDS011;34005;48.844;10.098;2023-09-08T01:15:02;8.32;;;7.05;;
48215;SDS011;34005;48.844;10.098;2023-09-08T01:17:31;10.00;;;6.82;;
48215;SDS011;34005;48.844;10.098;2023-09-08T01:20:00;7.70;;;6.35;;
48215;SDS011;34005;48.844;10.098;2023-09-08T01:22:53;7.75;;;5.78;;
48215;SDS011;34005;48.844;10.098;2023-09-08T01:25:30;9.43;;;6.25;;
48215;SDS011;34005;48.844;10.098;2023-09-08T01:28:00;8.13;;;6.57;;
48215;SDS011;34005;48.844;10.098;2023-09-08T01:30:29;8.43;;;6.47;;
48215;SDS011;34005;48.844;10.098;2023-09-08T01:32:59;8.18;;;6.70;;
48215;SDS011;34005;48.844;10.098;2023-09-08T01:35:27;8.02;;;6.07;;
48215;SDS011;34005;48.844;10.098;2023-09-08T01:37:55;10.65;;;7.28;;
48215;SDS011;34005;48.844;10.098;2023-09-08T01:40:23;9.90;;;6.85;;
48215;SDS011;34005;48.844;10.098;2023-09-08T01:42:52;9.75;;;7.28;;
48215;SDS011;34005;48.844;10.098;2023-09-08T01:45:20;9.20;;;7.70;;
48215;SDS011;34005;48.844;10.098;2023-09-08T01:47:48;8.75;;;7.10;;
48215;SDS011;34005;48.844;10.098;2023-09-08T01:50:16;9.13;;;6.97;;
48215;SDS011;34005;48.844;10.098;2023-09-08T01:52:48;8.80;;;6.60;;
48215;SDS011;34005;48.844;10.098;2023-09-08T01:55:16;9.48;;;6.90;;
48215;SDS011;34005;48.844;10.098;2023-09-08T01:57:43;13.18;;;6.95;;
48215;SDS011;34005;48.844;10.098;2023-09-08T02:00:14;9.43;;;6.85;;
48215;SDS011;34005;48.844;10.098;2023-09-08T02:02:42;10.05;;;6.72;;
48215;SDS011;34005;48.844;10.098;2023-09-08T02:05:10;9.35;;;7.05;;
48215;SDS011;34005;48.844;10.098;2023-09-08T02:07:39;8.63;;;6.35;;
48215;SDS011;34005;48.844;10.098;2023-09-08T02:10:09;7.57;;;6.78;;
48215;SDS011;34005;48.844;10.098;2023-09-08T02:12:38;7.25;;;6.50;;
48215;SDS011;34005;48.844;10.098;2023-09-08T02:15:07;7.18;;;6.35;;
48215;SDS011;34005;48.844;10.098;2023-09-08T02:17:39;9.38;;;6.20;;
48215;SDS011;34005;48.844;10.098;2023-09-08T02:20:08;11.55;;;6.57;;
48215;SDS011;34005;48.844;10.098;2023-09-08T02:22:38;7.55;;;6.25;;
48215;SDS011;34005;48.844;10.098;2023-09-08T02:25:07;7.00;;;6.18;;
48215;SDS011;34005;48.844;10.098;2023-09-08T02:27:36;8.65;;;6.72;;
48215;SDS011;34005;48.844;10.098;2023-09-08T02:30:06;8.35;;;6.53;;
48215;SDS011;34005;48.844;10.098;2023-09-08T02:32:36;9.73;;;6.05;;
48215;SDS011;34005;48.844;10.098;2023-09-08T02:35:06;8.45;;;6.03;;
48215;SDS011;34005;48.844;10.098;2023-09-08T02:37:36;10.93;;;7.23;;
48215;SDS011;34005;48.844;10.098;2023-09-08T02:40:06;8.13;;;6.72;;
48215;SDS011;34005;48.844;10.098;2023-09-08T02:42:35;9.13;;;6.93;;
48215;SDS011;34005;48.844;10.098;2023-09-08T02:45:04;7.65;;;6.63;;
48215;SDS011;34005;48.844;10.098;2023-09-08T02:47:33;9.07;;;5.93;;
48215;SDS011;34005;48.844;10.098;2023-09-08T02:50:02;8.93;;;6.85;;
48215;SDS011;34005;48.844;10.098;2023-09-08T02:52:32;9.52;;;6.25;;
48215;SDS011;34005;48.844;10.098;2023-09-08T02:55:01;6.88;;;6.03;;
48215;SDS011;34005;48.844;10.098;2023-09-08T02:57:30;7.40;;;6.55;;
48215;SDS011;34005;48.844;10.098;2023-09-08T02:59:59;7.72;;;6.43;;
48215;SDS011;34005;48.844;10.098;2023-09-08T03:02:30;8.40;;;6.32;;
48215;SDS011;34005;48.844;10.098;2023-09-08T03:04:59;10.45;;;6.30;;
48215;SDS011;34005;48.844;10.098;2023-09-08T03:07:28;11.02;;;7.00;;
48215;SDS011;34005;48.844;10.098;2023-09-08T03:09:58;8.90;;;6.05;;
48215;SDS011;34005;48.844;10.098;2023-09-08T03:12:27;9.18;;;6.45;;
48215;SDS011;34005;48.844;10.098;2023-09-08T03:14:56;9.68;;;6.40;;
48215;SDS011;34005;48.844;10.098;2023-09-08T03:17:25;7.70;;;6.18;;
48215;SDS011;34005;48.844;10.098;2023-09-08T03:19:54;7.60;;;6.45;;
48215;SDS011;34005;48.844;10.098;2023-09-08T03:22:23;7.97;;;6.60;;
48215;SDS011;34005;48.844;10.098;2023-09-08T03:24:52;7.85;;;6.60;;
48215;SDS011;34005;48.844;10.098;2023-09-08T03:27:23;9.80;;;7.30;;
48215;SDS011;34005;48.844;10.098;2023-09-08T03:29:51;9.43;;;7.22;;
48215;SDS011;34005;48.844;10.098;2023-09-08T03:32:21;12.02;;;7.35;;
48215;SDS011;34005;48.844;10.098;2023-09-08T03:34:50;9.13;;;6.95;;
48215;SDS011;34005;48.844;10.098;2023-09-08T03:37:19;7.88;;;6.40;;
48215;SDS011;34005;48.844;10.098;2023-09-08T03:39:48;9.07;;;6.90;;
48215;SDS011;34005;48.844;10.098;2023-09-08T03:42:17;7.43;;;6.32;;
48215;SDS011;34005;48.844;10.098;2023-09-08T03:44:47;7.43;;;6.53;;
48215;SDS011;34005;48.844;10.098;2023-09-08T03:47:16;10.35;;;7.05;;
48215;SDS011;34005;48.844;10.098;2023-09-08T03:49:44;8.23;;;7.18;;
48215;SDS011;34005;48.844;10.098;2023-09-08T03:52:13;9.05;;;7.00;;
48215;SDS011;34005;48.844;10.098;2023-09-08T03:54:42;11.25;;;6.82;;
48215;SDS011;34005;48.844;10.098;2023-09-08T03:57:13;13.57;;;7.13;;
48215;SDS011;34005;48.844;10.098;2023-09-08T03:59:42;16.08;;;7.90;;
48215;SDS011;34005;48.844;10.098;2023-09-08T04:02:14;12.73;;;6.80;;
48215;SDS011;34005;48.844;10.098;2023-09-08T04:04:43;10.60;;;7.53;;
48215;SDS011;34005;48.844;10.098;2023-09-08T04:07:12;10.95;;;7.38;;
48215;SDS011;34005;48.844;10.098;2023-09-08T04:09:41;9.18;;;6.80;;
48215;SDS011;34005;48.844;10.098;2023-09-08T04:12:09;12.45;;;7.25;;
48215;SDS011;34005;48.844;10.098;2023-09-08T04:14:39;8.73;;;7.07;;
48215;SDS011;34005;48.844;10.098;2023-09-08T04:17:08;9.60;;;7.07;;
48215;SDS011;34005;48.844;10.098;2023-09-08T04:19:38;10.30;;;7.38;;
48215;SDS011;34005;48.844;10.098;2023-09-08T04:22:07;10.73;;;7.00;;
48215;SDS011;34005;48.844;10.098;2023-09-08T04:24:36;10.80;;;7.18;;
48215;SDS011;34005;48.844;10.098;2023-09-08T04:27:06;9.52;;;7.38;;
48215;SDS011;34005;48.844;10.098;2023-09-08T04:29:40;7.25;;;6.55;;
48215;SDS011;34005;48.844;10.098;2023-09-08T04:32:10;8.40;;;7.18;;
48215;SDS011;34005;48.844;10.098;2023-09-08T04:34:41;8.98;;;7.57;;
48215;SDS011;34005;48.844;10.098;2023-09-08T04:37:10;12.30;;;7.20;;
48215;SDS011;34005;48.844;10.098;2023-09-08T04:39:39;7.68;;;6.53;;
48215;SDS011;34005;48.844;10.098;2023-09-08T04:42:08;11.63;;;7.03;;
48215;SDS011;34005;48.844;10.098;2023-09-08T04:44:37;9.60;;;7.30;;
48215;SDS011;34005;48.844;10.098;2023-09-08T04:47:06;6.63;;;5.72;;
48215;SDS011;34005;48.844;10.098;2023-09-08T04:49:35;9.50;;;6.70;;
48215;SDS011;34005;48.844;10.098;2023-09-08T04:52:06;8.27;;;6.45;;
48215;SDS011;34005;48.844;10.098;2023-09-08T04:54:35;9.00;;;6.30;;
48215;SDS011;34005;48.844;10.098;2023-09-08T04:57:04;9.25;;;6.20;;
48215;SDS011;34005;48.844;10.098;2023-09-08T04:59:48;12.52;;;6.35;;
48215;SDS011;34005;48.844;10.098;2023-09-08T05:02:17;6.07;;;5.43;;
48215;SDS011;34005;48.844;10.098;2023-09-08T05:04:49;7.10;;;5.57;;
48215;SDS011;34005;48.844;10.098;2023-09-08T05:07:20;6.53;;;5.90;;
48215;SDS011;34005;48.844;10.098;2023-09-08T05:09:52;9.55;;;6.30;;
48215;SDS011;34005;48.844;10.098;2023-09-08T05:12:23;11.75;;;6.72;;
48215;SDS011;34005;48.844;10.098;2023-09-08T05:14:52;14.15;;;6.30;;
48215;SDS011;34005;48.844;10.098;2023-09-08T05:17:26;9.52;;;6.70;;
48215;SDS011;34005;48.844;10.098;2023-09-08T05:19:55;10.38;;;6.50;;
48215;SDS011;34005;48.844;10.098;2023-09-08T05:22:25;6.20;;;5.60;;
48215;SDS011;34005;48.844;10.098;2023-09-08T05:24:54;11.55;;;5.68;;
48215;SDS011;34005;48.844;10.098;2023-09-08T05:27:23;6.57;;;5.80;;
48215;SDS011;34005;48.844;10.098;2023-09-08T05:29:52;7.78;;;5.50;;
48215;SDS011;34005;48.844;10.098;2023-09-08T05:32:21;7.40;;;5.43;;
48215;SDS011;34005;48.844;10.098;2023-09-08T05:34:50;8.88;;;5.45;;
48215;SDS011;34005;48.844;10.098;2023-09-08T05:37:19;7.72;;;5.95;;
48215;SDS011;34005;48.844;10.098;2023-09-08T05:39:50;8.90;;;5.80;;
48215;SDS011;34005;48.844;10.098;2023-09-08T05:42:19;5.82;;;5.28;;
48215;SDS011;34005;48.844;10.098;2023-09-08T05:44:48;5.78;;;5.10;;
48215;SDS011;34005;48.844;10.098;2023-09-08T05:47:17;7.40;;;5.47;;
48215;SDS011;34005;48.844;10.098;2023-09-08T05:49:46;7.03;;;6.32;;
48215;SDS011;34005;48.844;10.098;2023-09-08T05:52:15;8.43;;;5.82;;
48215;SDS011;34005;48.844;10.098;2023-09-08T05:54:44;9.20;;;6.07;;
48215;SDS011;34005;48.844;10.098;2023-09-08T05:57:15;9.45;;;5.97;;
48215;SDS011;34005;48.844;10.098;2023-09-08T05:59:44;8.55;;;5.70;;
48215;SDS011;34005;48.844;10.098;2023-09-08T06:02:14;8.13;;;5.68;;
48215;SDS011;34005;48.844;10.098;2023-09-08T06:04:43;9.57;;;5.78;;
48215;SDS011;34005;48.844;10.098;2023-09-08T06:07:12;8.80;;;5.15;;
48215;SDS011;34005;48.844;10.098;2023-09-08T06:09:41;7.20;;;5.70;;
48215;SDS011;34005;48.844;10.098;2023-09-08T06:12:10;11.23;;;6.28;;
48215;SDS011;34005;48.844;10.098;2023-09-08T06:14:40;7.72;;;6.35;;
48215;SDS011;34005;48.844;10.098;2023-09-08T06:17:11;7.47;;;5.03;;
48215;SDS011;34005;48.844;10.098;2023-09-08T06:19:40;11.10;;;5.50;;
48215;SDS011;34005;48.844;10.098;2023-09-08T06:22:10;8.95;;;5.80;;
48215;SDS011;34005;48.844;10.098;2023-09-08T06:24:39;9.38;;;6.07;;
48215;SDS011;34005;48.844;10.098;2023-09-08T06:27:10;6.03;;;5.43;;
48215;SDS011;34005;48.844;10.098;2023-09-08T06:29:41;8.43;;;5.68;;
48215;SDS011;34005;48.844;10.098;2023-09-08T06:32:10;9.95;;;5.90;;
48215;SDS011;34005;48.844;10.098;2023-09-08T06:34:40;6.43;;;5.68;;
48215;SDS011;34005;48.844;10.098;2023-09-08T06:37:10;7.97;;;4.93;;
48215;SDS011;34005;48.844;10.098;2023-09-08T06:39:40;5.78;;;4.78;;
48215;SDS011;34005;48.844;10.098;2023-09-08T06:42:10;5.78;;;4.82;;
48215;SDS011;34005;48.844;10.098;2023-09-08T06:44:41;7.72;;;4.88;;
48215;SDS011;34005;48.844;10.098;2023-09-08T06:47:10;5.45;;;4.63;;
48215;SDS011;34005;48.844;10.098;2023-09-08T06:49:40;5.78;;;5.18;;
48215;SDS011;34005;48.844;10.098;2023-09-08T06:52:10;5.68;;;4.75;;
48215;SDS011;34005;48.844;10.098;2023-09-08T06:54:39;7.55;;;4.60;;
48215;SDS011;34005;48.844;10.098;2023-09-08T06:57:10;5.72;;;3.90;;
48215;SDS011;34005;48.844;10.098;2023-09-08T06:59:41;7.03;;;5.07;;
48215;SDS011;34005;48.844;10.098;2023-09-08T07:02:13;6.00;;;4.80;;
48215;SDS011;34005;48.844;10.098;2023-09-08T07:04:50;5.03;;;4.57;;
48215;SDS011;34005;48.844;10.098;2023-09-08T07:07:20;5.63;;;4.63;;
48215;SDS011;34005;48.844;10.098;2023-09-08T07:09:50;6.50;;;4.43;;
48215;SDS011;34005;48.844;10.098;2023-09-08T07:12:19;8.05;;;4.50;;
48215;SDS011;34005;48.844;10.098;2023-09-08T07:14:57;5.18;;;4.63;;
48215;SDS011;34005;48.844;10.098;2023-09-08T07:17:28;6.47;;;4.43;;
48215;SDS011;34005;48.844;10.098;2023-09-08T07:20:03;5.30;;;4.70;;
48215;SDS011;34005;48.844;10.098;2023-09-08T07:25:08;4.47;;;3.88;;
48215;SDS011;34005;48.844;10.098;2023-09-08T07:27:40;5.20;;;4.70;;
48215;SDS011;34005;48.844;10.098;2023-09-08T07:30:17;5.45;;;4.53;;
48215;SDS011;34005;48.844;10.098;2023-09-08T07:32:54;6.07;;;4.82;;
48215;SDS011;34005;48.844;10.098;2023-09-08T07:35:31;6.40;;;4.30;;
48215;SDS011;34005;48.844;10.098;2023-09-08T07:38:20;6.35;;;4.50;;
48215;SDS011;34005;48.844;10.098;2023-09-08T07:41:07;6.88;;;4.40;;
48215;SDS011;34005;48.844;10.098;2023-09-08T07:44:06;5.60;;;4.45;;
48215;SDS011;34005;48.844;10.098;2023-09-08T07:50:32;5.95;;;4.50;;
48215;SDS011;34005;48.844;10.098;2023-09-08T07:53:11;5.87;;;4.87;;
48215;SDS011;34005;48.844;10.098;2023-09-08T07:56:17;7.00;;;4.72;;
48215;SDS011;34005;48.844;10.098;2023-09-08T07:58:48;4.75;;;4.25;;
48215;SDS011;34005;48.844;10.098;2023-09-08T08:01:19;5.20;;;4.60;;
48215;SDS011;34005;48.844;10.098;2023-09-08T08:04:17;5.53;;;4.30;;
48215;SDS011;34005;48.844;10.098;2023-09-08T08:06:46;5.25;;;4.35;;
48215;SDS011;34005;48.844;10.098;2023-09-08T08:09:15;5.90;;;4.55;;
48215;SDS011;34005;48.844;10.098;2023-09-08T08:11:43;5.47;;;4.20;;
48215;SDS011;34005;48.844;10.098;2023-09-08T08:14:11;5.35;;;4.35;;
48215;SDS011;34005;48.844;10.098;2023-09-08T08:16:38;5.57;;;3.78;;
48215;SDS011;34005;48.844;10.098;2023-09-08T08:19:06;5.07;;;4.28;;
48215;SDS011;34005;48.844;10.098;2023-09-08T08:21:35;4.38;;;3.88;;
48215;SDS011;34005;48.844;10.098;2023-09-08T08:24:04;4.72;;;4.03;;
48215;SDS011;34005;48.844;10.098;2023-09-08T08:26:32;5.43;;;4.00;;
48215;SDS011;34005;48.844;10.098;2023-09-08T08:28:59;5.43;;;4.28;;
48215;SDS011;34005;48.844;10.098;2023-09-08T08:31:27;5.93;;;4.05;;
48215;SDS011;34005;48.844;10.098;2023-09-08T08:33:55;7.38;;;4.63;;
48215;SDS011;34005;48.844;10.098;2023-09-08T08:36:22;4.63;;;3.58;;
48215;SDS011;34005;48.844;10.098;2023-09-08T08:38:51;4.35;;;3.95;;
48215;SDS011;34005;48.844;10.098;2023-09-08T08:41:19;5.05;;;4.03;;
48215;SDS011;34005;48.844;10.098;2023-09-08T08:43:47;4.80;;;3.63;;
48215;SDS011;34005;48.844;10.098;2023-09-08T08:46:15;4.45;;;3.83;;
48215;SDS011;34005;48.844;10.098;2023-09-08T08:48:46;5.75;;;3.65;;
48215;SDS011;34005;48.844;10.098;2023-09-08T08:51:16;6.38;;;4.10;;
48215;SDS011;34005;48.844;10.098;2023-09-08T08:53:45;3.85;;;3.55;;
48215;SDS011;34005;48.844;10.098;2023-09-08T08:56:14;4.00;;;3.55;;
48215;SDS011;34005;48.844;10.098;2023-09-08T08:58:43;3.85;;;3.55;;
48215;SDS011;34005;48.844;10.098;2023-09-08T09:01:11;4.03;;;3.65;;
48215;SDS011;34005;48.844;10.098;2023-09-08T09:03:39;6.22;;;3.40;;
48215;SDS011;34005;48.844;10.098;2023-09-08T09:06:09;6.53;;;3.75;;
48215;SDS011;34005;48.844;10.098;2023-09-08T09:08:37;9.23;;;4.18;;
48215;SDS011;34005;48.844;10.098;2023-09-08T09:11:06;6.63;;;3.42;;
48215;SDS011;34005;48.844;10.098;2023-09-08T09:13:35;4.97;;;3.53;;
48215;SDS011;34005;48.844;10.098;2023-09-08T09:16:03;4.40;;;3.75;;
48215;SDS011;34005;48.844;10.098;2023-09-08T09:18:48;3.75;;;3.45;;
48215;SDS011;34005;48.844;10.098;2023-09-08T09:21:21;3.05;;;2.67;;
48215;SDS011;34005;48.844;10.098;2023-09-08T09:23:49;3.78;;;3.47;;
48215;SDS011;34005;48.844;10.098;2023-09-08T09:26:23;4.30;;;3.08;;
48215;SDS011;34005;48.844;10.098;2023-09-08T09:28:53;4.93;;;3.17;;
48215;SDS011;34005;48.844;10.098;2023-09-08T09:31:24;3.58;;;3.20;;
48215;SDS011;34005;48.844;10.098;2023-09-08T09:34:02;3.95;;;3.55;;
48215;SDS011;34005;48.844;10.098;2023-09-08T09:36:31;5.35;;;3.50;;
48215;SDS011;34005;48.844;10.098;2023-09-08T09:38:59;4.35;;;3.60;;
48215;SDS011;34005;48.844;10.098;2023-09-08T09:41:27;5.05;;;3.60;;
48215;SDS011;34005;48.844;10.098;2023-09-08T09:43:57;3.92;;;3.55;;
48215;SDS011;34005;48.844;10.098;2023-09-08T09:46:27;3.90;;;3.45;;
48215;SDS011;34005;48.844;10.098;2023-09-08T09:48:55;5.18;;;3.72;;
48215;SDS011;34005;48.844;10.098;2023-09-08T09:51:23;7.88;;;3.45;;
48215;SDS011;34005;48.844;10.098;2023-09-08T09:53:51;3.88;;;3.33;;
48215;SDS011;34005;48.844;10.098;2023-09-08T09:56:20;4.43;;;4.03;;
48215;SDS011;34005;48.844;10.098;2023-09-08T09:58:51;6.55;;;3.45;;
48215;SDS011;34005;48.844;10.098;2023-09-08T10:01:21;4.53;;;4.03;;
48215;SDS011;34005;48.844;10.098;2023-09-08T10:06:21;5.50;;;3.65;;
48215;SDS011;34005;48.844;10.098;2023-09-08T10:08:49;6.65;;;3.63;;
48215;SDS011;34005;48.844;10.098;2023-09-08T10:11:19;4.03;;;3.42;;
48215;SDS011;34005;48.844;10.098;2023-09-08T10:13:50;5.53;;;3.58;;
48215;SDS011;34005;48.844;10.098;2023-09-08T10:16:22;3.30;;;3.10;;
48215;SDS011;34005;48.844;10.098;2023-09-08T10:18:53;10.23;;;4.10;;
48215;SDS011;34005;48.844;10.098;2023-09-08T10:21:25;4.18;;;3.47;;
48215;SDS011;34005;48.844;10.098;2023-09-08T10:23:54;5.18;;;3.20;;
48215;SDS011;34005;48.844;10.098;2023-09-08T10:26:27;4.72;;;3.40;;
48215;SDS011;34005;48.844;10.098;2023-09-08T10:28:57;3.90;;;3.37;;
48215;SDS011;34005;48.844;10.098;2023-09-08T10:31:27;6.85;;;3.20;;
48215;SDS011;34005;48.844;10.098;2023-09-08T10:33:57;7.78;;;3.55;;
48215;SDS011;34005;48.844;10.098;2023-09-08T10:36:25;5.35;;;3.58;;
48215;SDS011;34005;48.844;10.098;2023-09-08T10:38:54;5.95;;;3.38;;
48215;SDS011;34005;48.844;10.098;2023-09-08T10:41:26;5.68;;;3.60;;
48215;SDS011;34005;48.844;10.098;2023-09-08T10:43:56;5.00;;;4.35;;
48215;SDS011;34005;48.844;10.098;2023-09-08T10:46:27;6.43;;;4.07;;
48215;SDS011;34005;48.844;10.098;2023-09-08T10:49:00;6.90;;;3.30;;
48215;SDS011;34005;48.844;10.098;2023-09-08T10:51:29;4.95;;;3.20;;
48215;SDS011;34005;48.844;10.098;2023-09-08T10:53:57;5.50;;;3.35;;
48215;SDS011;34005;48.844;10.098;2023-09-08T10:56:29;8.07;;;3.67;;
48215;SDS011;34005;48.844;10.098;2023-09-08T10:59:15;7.95;;;3.78;;
48215;SDS011;34005;48.844;10.098;2023-09-08T11:01:44;4.43;;;3.60;;
48215;SDS011;34005;48.844;10.098;2023-09-08T11:04:14;5.22;;;3.20;;
48215;SDS011;34005;48.844;10.098;2023-09-08T11:06:45;4.88;;;3.72;;
48215;SDS011;34005;48.844;10.098;2023-09-08T11:09:13;4.60;;;3.55;;
48215;SDS011;34005;48.844;10.098;2023-09-08T11:11:40;5.70;;;3.60;;
48215;SDS011;34005;48.844;10.098;2023-09-08T11:14:09;4.07;;;3.58;;
48215;SDS011;34005;48.844;10.098;2023-09-08T11:16:36;7.22;;;3.67;;
48215;SDS011;34005;48.844;10.098;2023-09-08T11:19:05;4.63;;;4.18;;
48215;SDS011;34005;48.844;10.098;2023-09-08T11:21:33;7.47;;;4.43;;
48215;SDS011;34005;48.844;10.098;2023-09-08T11:24:01;5.63;;;4.28;;
48215;SDS011;34005;48.844;10.098;2023-09-08T11:26:32;4.68;;;3.85;;
48215;SDS011;34005;48.844;10.098;2023-09-08T11:29:00;4.13;;;3.47;;
48215;SDS011;34005;48.844;10.098;2023-09-08T11:31:28;4.78;;;3.75;;
48215;SDS011;34005;48.844;10.098;2023-09-08T11:33:56;4.75;;;3.72;;
48215;SDS011;34005;48.844;10.098;2023-09-08T11:36:27;7.03;;;3.38;;
48215;SDS011;34005;48.844;10.098;2023-09-08T11:38:54;4.13;;;3.72;;
48215;SDS011;34005;48.844;10.098;2023-09-08T11:41:22;3.95;;;3.20;;
48215;SDS011;34005;48.844;10.098;2023-09-08T11:43:50;6.30;;;3.90;;
48215;SDS011;34005;48.844;10.098;2023-09-08T11:46:18;6.88;;;4.00;;
48215;SDS011;34005;48.844;10.098;2023-09-08T11:48:46;4.75;;;4.15;;
48215;SDS011;34005;48.844;10.098;2023-09-08T11:51:14;4.57;;;4.05;;
48215;SDS011;34005;48.844;10.098;2023-09-08T11:53:43;5.35;;;3.80;;
48215;SDS011;34005;48.844;10.098;2023-09-08T11:56:10;9.00;;;4.00;;
48215;SDS011;34005;48.844;10.098;2023-09-08T11:58:38;5.07;;;3.92;;
48215;SDS011;34005;48.844;10.098;2023-09-08T12:01:06;5.63;;;3.92;;
48215;SDS011;34005;48.844;10.098;2023-09-08T12:03:45;6.72;;;4.07;;
48215;SDS011;34005;48.844;10.098;2023-09-08T12:06:18;5.53;;;4.20;;
48215;SDS011;34005;48.844;10.098;2023-09-08T12:08:47;6.30;;;3.78;;
48215;SDS011;34005;48.844;10.098;2023-09-08T12:11:15;6.05;;;3.97;;
48215;SDS011;34005;48.844;10.098;2023-09-08T12:13:42;6.18;;;4.25;;
48215;SDS011;34005;48.844;10.098;2023-09-08T12:16:19;6.65;;;4.20;;
48215;SDS011;34005;48.844;10.098;2023-09-08T12:18:48;5.90;;;3.92;;
48215;SDS011;34005;48.844;10.098;2023-09-08T12:21:17;4.57;;;3.88;;
48215;SDS011;34005;48.844;10.098;2023-09-08T12:23:49;6.18;;;3.70;;
48215;SDS011;34005;48.844;10.098;2023-09-08T12:26:17;4.72;;;4.07;;
48215;SDS011;34005;48.844;10.098;2023-09-08T12:28:45;5.97;;;4.30;;
48215;SDS011;34005;48.844;10.098;2023-09-08T12:31:14;4.50;;;4.03;;
48215;SDS011;34005;48.844;10.098;2023-09-08T12:33:44;5.35;;;4.07;;
48215;SDS011;34005;48.844;10.098;2023-09-08T12:36:12;5.30;;;3.95;;
48215;SDS011;34005;48.844;10.098;2023-09-08T12:38:41;7.57;;;4.82;;
48215;SDS011;34005;48.844;10.098;2023-09-08T12:41:15;5.05;;;4.43;;
48215;SDS011;34005;48.844;10.098;2023-09-08T12:43:44;4.53;;;4.10;;
48215;SDS011;34005;48.844;10.098;2023-09-08T12:46:11;5.53;;;4.30;;
48215;SDS011;34005;48.844;10.098;2023-09-08T12:48:39;5.20;;;4.32;;
48215;SDS011;34005;48.844;10.098;2023-09-08T12:51:07;5.97;;;4.03;;
48215;SDS011;34005;48.844;10.098;2023-09-08T12:53:34;4.40;;;4.00;;
48215;SDS011;34005;48.844;10.098;2023-09-08T12:56:02;4.88;;;3.80;;
48215;SDS011;34005;48.844;10.098;2023-09-08T12:58:32;4.57;;;4.18;;
48215;SDS011;34005;48.844;10.098;2023-09-08T13:01:00;4.65;;;3.72;;
48215;SDS011;34005;48.844;10.098;2023-09-08T13:03:28;4.05;;;3.75;;
48215;SDS011;34005;48.844;10.098;2023-09-08T13:05:56;4.25;;;3.85;;
48215;SDS011;34005;48.844;10.098;2023-09-08T13:08:23;8.05;;;4.22;;
48215;SDS011;34005;48.844;10.098;2023-09-08T13:10:51;4.93;;;4.40;;
48215;SDS011;34005;48.844;10.098;2023-09-08T13:13:18;4.55;;;4.15;;
48215;SDS011;34005;48.844;10.098;2023-09-08T13:15:47;7.75;;;4.32;;
48215;SDS011;34005;48.844;10.098;2023-09-08T13:18:15;11.30;;;4.35;;
48215;SDS011;34005;48.844;10.098;2023-09-08T13:20:43;4.28;;;3.88;;
48215;SDS011;34005;48.844;10.098;2023-09-08T13:23:11;5.10;;;4.28;;
48215;SDS011;34005;48.844;10.098;2023-09-08T13:25:38;6.28;;;4.43;;
48215;SDS011;34005;48.844;10.098;2023-09-08T13:28:08;4.63;;;4.22;;
48215;SDS011;34005;48.844;10.098;2023-09-08T13:30:35;7.53;;;3.95;;
48215;SDS011;34005;48.844;10.098;2023-09-08T13:33:04;5.13;;;4.35;;
48215;SDS011;34005;48.844;10.098;2023-09-08T13:35:33;6.13;;;4.63;;
48215;SDS011;34005;48.844;10.098;2023-09-08T13:38:01;5.85;;;4.45;;
48215;SDS011;34005;48.844;10.098;2023-09-08T13:40:30;4.80;;;4.38;;
48215;SDS011;34005;48.844;10.098;2023-09-08T13:42:57;5.38;;;4.50;;
48215;SDS011;34005;48.844;10.098;2023-09-08T13:45:26;5.45;;;4.47;;
48215;SDS011;34005;48.844;10.098;2023-09-08T13:47:54;6.13;;;4.18;;
48215;SDS011;34005;48.844;10.098;2023-09-08T13:50:23;4.50;;;4.10;;
48215;SDS011;34005;48.844;10.098;2023-09-08T13:52:53;5.00;;;4.35;;
48215;SDS011;34005;48.844;10.098;2023-09-08T13:55:23;7.00;;;4.65;;
48215;SDS011;34005;48.844;10.098;2023-09-08T13:57:53;4.80;;;4.40;;
48215;SDS011;34005;48.844;10.098;2023-09-08T14:00:22;6.70;;;4.88;;
48215;SDS011;34005;48.844;10.098;2023-09-08T14:02:50;9.65;;;4.65;;
48215;SDS011;34005;48.844;10.098;2023-09-08T14:05:26;6.32;;;4.07;;
48215;SDS011;34005;48.844;10.098;2023-09-08T14:08:01;4.82;;;3.70;;
48215;SDS011;34005;48.844;10.098;2023-09-08T14:10:40;5.50;;;3.92;;
48215;SDS011;34005;48.844;10.098;2023-09-08T14:13:18;4.88;;;3.75;;
48215;SDS011;34005;48.844;10.098;2023-09-08T14:15:46;4.13;;;3.65;;
48215;SDS011;34005;48.844;10.098;2023-09-08T14:18:13;4.90;;;3.28;;
48215;SDS011;34005;48.844;10.098;2023-09-08T14:20:42;5.35;;;3.60;;
48215;SDS011;34005;48.844;10.098;2023-09-08T14:23:10;4.50;;;3.47;;
48215;SDS011;34005;48.844;10.098;2023-09-08T14:25:38;5.70;;;3.95;;
48215;SDS011;34005;48.844;10.098;2023-09-08T14:28:05;5.93;;;4.13;;
48215;SDS011;34005;48.844;10.098;2023-09-08T14:30:33;6.30;;;4.25;;
48215;SDS011;34005;48.844;10.098;2023-09-08T14:33:01;6.38;;;3.90;;
48215;SDS011;34005;48.844;10.098;2023-09-08T14:35:29;5.00;;;4.30;;
48215;SDS011;34005;48.844;10.098;2023-09-08T14:37:58;10.50;;;4.75;;
48215;SDS011;34005;48.844;10.098;2023-09-08T14:40:25;4.80;;;4.25;;
48215;SDS011;34005;48.844;10.098;2023-09-08T14:42:53;4.70;;;4.20;;
48215;SDS011;34005;48.844;10.098;2023-09-08T14:45:20;5.47;;;4.65;;
48215;SDS011;34005;48.844;10.098;2023-09-08T14:47:48;5.60;;;4.68;;
48215;SDS011;34005;48.844;10.098;2023-09-08T14:50:16;8.68;;;4.35;;
48215;SDS011;34005;48.844;10.098;2023-09-08T14:52:44;6.38;;;5.10;;
48215;SDS011;34005;48.844;10.098;2023-09-08T14:55:13;5.60;;;5.10;;
48215;SDS011;34005;48.844;10.098;2023-09-08T14:57:40;6.57;;;4.97;;